Flight Track Log - Related Links

Times and Time Zones

All times are in EDT time to prevent confusion due to time zone crossing. See the N319EE flight status page for this flight to view local times or setup timezone preferences in your user account.

Time Position Orientation Groundspeed Altitude Reporting Facility
EDT Latitude Longitude Course Direction KTS MPH feet Rate Location/Type
Thu 07:17:28 PM 43.6789 -70.5453 283° West 179 206 7,700  Level Boston Center
Thu 07:18:26 PM 43.6906 -70.6167 283° West 179 206 10,100 2,085 Climbing Boston Center
Thu 07:19:26 PM 43.6914 -70.6686 271° West 166 191 11,800 1,835 Climbing Boston Center
Thu 07:20:00 PM 43.5309 -70.8166 260° West  Level Estimated
Thu 07:20:27 PM 43.6736 -70.7378 250° West 166 191 13,800  Level Boston Center
Thu 07:21:00 PM 43.5116 -70.9010 256° West  Level Estimated
Thu 07:21:28 PM 43.6578 -70.7928 248° West 173 199 15,200  Level Boston Center
Thu 07:22:28 PM 43.6378 -70.8650 249° West 178 205 16,000 407 Climbing Boston Center
Thu 07:23:26 PM 43.6181 -70.9344 249° West 209 241 16,000  Level Boston Center
Thu 07:24:26 PM 43.5919 -71.0269 249° West 226 260 16,000  Level Boston Center
Thu 07:25:27 PM 43.5700 -71.1019 248° West 234 269 16,000  Level Boston Center
Thu 07:26:28 PM 43.5419 -71.1969 248° West 234 269 16,000  Level Boston Center
Thu 07:27:26 PM 43.5197 -71.2692 247° West 234 269 16,000  Level Boston Center
Thu 07:28:26 PM 43.4978 -71.3525 250° West 234 269 16,000  Level Boston Center
Thu 07:29:28 PM 43.4694 -71.4417 246° West 234 269 16,000  Level Boston Center
Thu 07:30:28 PM 43.4492 -71.5164 250° West 234 269 16,000  Level Boston Center
Thu 07:31:28 PM 43.4206 -71.6083 247° West 234 269 16,000  Level Boston Center
Thu 07:32:26 PM 43.4003 -71.6828 249° West 234 269 16,000  Level Boston Center
Thu 07:33:26 PM 43.3739 -71.7744 248° West 234 269 16,000  Level Boston Center
Thu 07:34:26 PM 43.3514 -71.8492 248° West 234 269 16,000  Level Boston Center
Thu 07:35:28 PM 43.3247 -71.9406 248° West 234 269 16,000  Level Boston Center
Thu 07:36:26 PM 43.3019 -72.0150 247° West 234 269 16,000  Level Boston Center
Thu 07:37:27 PM 43.2753 -72.1064 248° West 234 269 16,000  Level Boston Center
Thu 07:38:27 PM 43.2525 -72.1806 247° West 234 269 16,000  Level Boston Center
Thu 07:39:28 PM 43.2256 -72.2719 248° West 234 269 16,000  Level Boston Center
Thu 07:40:28 PM 43.2006 -72.3547 248° West 234 269 16,000  Level Boston Center
Thu 07:41:26 PM 43.1778 -72.4372 249° West 234 269 16,000  Level Boston Center
Thu 07:42:27 PM 43.1528 -72.5142 246° West 234 269 16,000  Level Boston Center
Thu 07:43:28 PM 43.1297 -72.5936 248° West 234 269 16,000  Level Boston Center
Thu 07:44:28 PM 43.1044 -72.6733 247° West 234 269 16,000  Level Boston Center
Thu 07:45:27 PM 43.0794 -72.7528 247° West 234 269 16,000  Level Boston Center
Thu 07:46:28 PM 43.0519 -72.8378 246° West 234 269 16,000  Level Boston Center
Thu 07:47:27 PM 43.0267 -72.9231 248° West 234 269 16,000  Level Boston Center
Thu 07:48:27 PM 42.9992 -73.0022 245° Southwest 234 269 16,000  Level Boston Center
Thu 07:49:28 PM 42.9758 -73.0786 247° West 234 269 16,000  Level Boston Center
Thu 07:50:26 PM 42.9483 -73.1692 247° West 234 269 16,000  Level Boston Center
Thu 07:51:26 PM 42.9228 -73.2539 248° West 239 275 16,000  Level Boston Center
Thu 07:52:27 PM 42.8972 -73.3328 246° West 239 275 16,000  Level Boston Center
Thu 07:53:27 PM 42.8714 -73.4147 247° West 234 269 16,000  Level Boston Center
Thu 07:54:28 PM 42.8456 -73.4936 246° West 234 269 16,000  Level Boston Center
Thu 07:55:28 PM 42.8200 -73.5750 247° West 234 269 16,000  Level Boston Center
Thu 07:56:26 PM 42.7942 -73.6539 246° West 234 269 16,000  Level Boston Center
Thu 07:57:26 PM 42.7703 -73.7383 249° West 239 275 16,000  Level Boston Center
Thu 07:58:27 PM 42.7464 -73.8197 248° West 239 275 16,000  Level Boston Center
Thu 07:59:28 PM 42.7244 -73.9069 251° West 239 275 16,000  Level Boston Center
Thu 08:00:26 PM 42.7044 -73.9911 252° West 239 275 16,000  Level Boston Center
Thu 08:01:27 PM 42.6847 -74.0756 252° West 244 281 16,000  Level Boston Center
Thu 08:02:29 PM 42.6625 -74.1539 249° West 244 281 16,000  Level Boston Center
Thu 08:03:27 PM 42.6447 -74.2325 253° West 244 281 16,000  Level Boston Center
Thu 08:04:28 PM 42.6222 -74.3250 252° West 244 281 16,000  Level Boston Center
Thu 08:05:28 PM 42.6022 -74.4006 250° West 244 281 16,000  Level Boston Center
Thu 08:06:26 PM 42.5797 -74.4956 252° West 244 281 16,000  Level Boston Center
Thu 08:07:28 PM 42.5617 -74.5683 251° West 244 281 16,000  Level Boston Center
Thu 08:08:26 PM 42.5392 -74.6633 252° West 244 281 16,000 -203 Level Boston Center
Thu 08:09:26 PM 42.5167 -74.7386 248° West 244 281 15,600 -545 Descending Boston Center
Thu 08:10:27 PM 42.4939 -74.8336 252° West 254 292 14,900 -694 Descending Boston Center
Thu 08:11:27 PM 42.4669 -74.9256 248° West 259 298 14,200 -694 Descending Boston Center
Thu 08:12:28 PM 42.4419 -75.0200 250° West 265 305 13,500 -694 Descending Boston Center
Thu 08:13:28 PM 42.4169 -75.1119 250° West 265 305 12,800 -712 Descending Boston Center
Thu 08:14:26 PM 42.3897 -75.2008 248° West 265 305 12,100 -724 Descending Boston Center
Thu 08:16:00 PM 42.3625 -75.3295 254° West  Level FlightAware Approximate
Thu 08:23:00 PM 42.2196 -75.8914 246° West  Level FlightAware Approximate
Thu 08:24:00 PM 42.2000 -75.9667 270° West  Level FlightAware Approximate
Thu 08:25:00 PM 42.2084 -75.9796 270° West  Level Estimated
Thu 08:26:00 PM 42.2084 -75.9796 270° West  Level Estimated
Thu 08:27:00 PM 42.2084 -75.9796 270° West  Level Estimated
Thu 08:28:00 PM 42.2084 -75.9796 270° West  Level Estimated
Thu 08:29:00 PM 42.2084 -75.9796 270° West  Level Estimated
Thu 08:30:00 PM 42.2084 -75.9796 270° West  Level Estimated

Login

Don't have an account? Register now (free) for customized features, flight alerts, and more!